Wylie, TX

11:31 AM CDT on May 25, 2015 (GMT -0500)
Legend Trail Estates | | Change Station
CLOSE
Current Station
Personal Weather Station
Location: St. Paul, TX
Elevation: 551 ft
Nearby Weather Stations
Active Advisory: Tornado Watch Active Notice: Record Report, Local Storm Report

Elev 551 ft 33.03 °N, 96.54 °W | Updated 2 seconds ago

Overcast
Overcast
76.1 °F
Feels Like 76 °F
N
11.4
Wind Variable Wind from SSE
Gusts 13.6 mph

Today
High -- | Low -- °F
--% Chance of Precip.
Yesterday
High -- | Low -- °F
Precip. -- in
6:21 AM 8:25 PM
Waxing Crescent, 50% visible
Pressure 29.92 in
Visibility 10.0 miles
Clouds Overcast 1100 ft
Heat Index 76 °F
Dew Point 75 °F
Humidity 96%
Rainfall 0.00 in
Snow Depth Not available.
UV 3 out of 12
Pollen 4.70 out of 12
Air Quality Not available.
Flu Activity Sporadic
METAR KF46 251615Z AUTO 16009G16KT 10SM OVC011 25/22 A2992 RMK AO2 LTG DSNT SW T02460222

More Conditions Fewer Conditions

Pressure 29.92 in
Visibility 10.0 miles
Clouds Overcast 1100 ft
Heat Index 76 °F
Dew Point 75 °F
Humidity 96%
Rainfall 0.00 in
Snow Depth Not available.
UV 3 out of 12
Pollen 4.70 out of 12
Air Quality Not available.
Flu Activity Sporadic
METAR KF46 251615Z AUTO 16009G16KT 10SM OVC011 25/22 A2992 RMK AO2 LTG DSNT SW T02460222

More Conditions Fewer Conditions

10-Day Weather Forecast

Almanac

Astronomy

May. 25, 2015 Rise Set
Actual Time
Civil Twilight
Nautical Twilight
Astronomical Twilight
Moon
Length of Visible Light
Length of Day
Tomorrow will be .
, % of the Moon is Illuminated

Today's Extremes

State Highs State Lows

Community

WunderPhotos

Upload Photos

1,824,048 photos uploaded!

WunderBlogs® & News

Nearby

Air Quality

  Air Quality AQ Index Pollutant
Not available.

Snow Depth

Station Depth Elevation

Earthquake Activity

City Distance Mag. Time & Date
Minimum magnitude displayed is 2.5.

Coastal Water Temperatures

Place Temperature

Stations

Nearby Weather Stations

Station Location Temp. Windchill Dew Point Humidity Wind Precip. Elev Updated Type
                   
Tornado Watch
Statement as of 11:24 AM CDT on May 25, 2015

Tornado Watch 211 remains in effect until 600 PM CDT for the
following locations

TX
. Texas counties included are

Archer Baylor Bell
Bosque Brown Callahan
Clay Coleman Collin
Comanche Concho Cooke
Coryell Dallas Denton
Eastland Ellis Erath
falls Foard Grayson
Hamilton Hardeman Haskell
Hill Hood Jack
Johnson Jones Kaufman
Kimble Knox Lampasas
Limestone McCulloch McLennan
Mason Menard Milam
Mills Montague Navarro
Palo Pinto Parker Robertson
Rockwall Runnels San Saba
Schleicher Shackelford Somervell
Stephens Sutton Tarrant
Taylor Throckmorton Tom Green
Wichita Wilbarger wise
Young